createdAt,value
2023-02-05T00:01:33.082Z,10.68
2023-02-05T00:04:00.604Z,12.02
2023-02-05T00:06:27.928Z,9.13
2023-02-05T00:08:57.195Z,8.70
2023-02-05T00:11:24.578Z,10.50
2023-02-05T00:13:51.880Z,7.28
2023-02-05T00:16:22.468Z,9.07
2023-02-05T00:18:49.854Z,8.77
2023-02-05T00:21:18.437Z,6.38
2023-02-05T00:23:45.941Z,7.60
2023-02-05T00:26:14.280Z,7.35
2023-02-05T00:28:42.470Z,7.72
2023-02-05T00:31:15.977Z,5.88
2023-02-05T00:33:44.433Z,6.68
2023-02-05T00:36:13.125Z,7.45
2023-02-05T00:38:41.205Z,5.97
2023-02-05T00:41:09.257Z,8.77
2023-02-05T00:43:38.782Z,6.47
2023-02-05T00:46:06.673Z,7.30
2023-02-05T00:48:34.133Z,5.45
2023-02-05T00:51:01.412Z,5.50
2023-02-05T00:53:28.898Z,5.95
2023-02-05T00:55:56.353Z,5.38
2023-02-05T00:58:24.218Z,7.82
2023-02-05T01:00:52.176Z,6.50
2023-02-05T01:03:20.331Z,6.20
2023-02-05T01:05:48.497Z,5.50
2023-02-05T01:08:15.904Z,4.10
2023-02-05T01:10:45.718Z,3.92
2023-02-05T01:13:14.506Z,7.68
2023-02-05T01:15:43.595Z,7.20
2023-02-05T01:18:11.296Z,5.57
2023-02-05T01:20:39.731Z,9.52
2023-02-05T01:23:07.484Z,7.32
2023-02-05T01:25:35.203Z,5.65
2023-02-05T01:28:03.289Z,6.05
2023-02-05T01:30:31.144Z,5.78
2023-02-05T01:32:59.740Z,8.00
2023-02-05T01:35:27.245Z,7.07
2023-02-05T01:37:54.459Z,6.68
2023-02-05T01:40:21.872Z,5.57
2023-02-05T01:42:49.133Z,5.13
2023-02-05T01:45:22.867Z,5.53
2023-02-05T01:47:56.703Z,5.75
2023-02-05T01:50:31.405Z,5.93
2023-02-05T01:53:00.905Z,3.90
2023-02-05T01:55:28.538Z,6.68
2023-02-05T01:57:56.304Z,5.50
2023-02-05T02:00:23.581Z,6.00
2023-02-05T02:02:51.168Z,5.05
2023-02-05T02:05:18.978Z,5.60
2023-02-05T02:07:46.661Z,6.32
2023-02-05T02:10:15.709Z,4.75
2023-02-05T02:12:44.365Z,6.35
2023-02-05T02:15:18.274Z,4.63
2023-02-05T02:17:48.514Z,5.97
2023-02-05T02:22:56.243Z,5.53
2023-02-05T02:25:47.735Z,7.35
2023-02-05T02:28:29.729Z,7.10
2023-02-05T02:31:11.421Z,4.38
2023-02-05T02:33:52.334Z,5.90
2023-02-05T02:36:25.459Z,5.57
2023-02-05T02:39:03.426Z,5.40
2023-02-05T02:41:56.757Z,4.15
2023-02-05T02:44:45.870Z,8.02
2023-02-05T02:47:17.237Z,5.55
2023-02-05T02:49:56.278Z,5.43
2023-02-05T02:52:25.498Z,8.75
2023-02-05T02:54:56.130Z,7.47
2023-02-05T02:57:27.210Z,6.65
2023-02-05T02:59:56.860Z,8.00
2023-02-05T03:02:25.463Z,7.60
2023-02-05T03:04:56.369Z,6.25
2023-02-05T03:07:38.089Z,6.20
2023-02-05T03:10:08.399Z,7.32
2023-02-05T03:12:38.211Z,8.73
2023-02-05T03:15:07.345Z,8.90
2023-02-05T03:17:34.985Z,7.10
2023-02-05T03:20:13.438Z,7.57
2023-02-05T03:22:41.306Z,9.07
2023-02-05T03:25:09.127Z,5.63
2023-02-05T03:27:36.737Z,6.85
2023-02-05T03:30:06.306Z,5.50
2023-02-05T03:33:00.099Z,7.60
2023-02-05T03:35:43.138Z,6.30
2023-02-05T03:38:36.642Z,10.45
2023-02-05T03:41:10.303Z,8.63
2023-02-05T03:43:56.498Z,6.20
2023-02-05T03:46:43.709Z,8.80
2023-02-05T03:49:21.472Z,8.05
2023-02-05T03:52:04.687Z,8.45
2023-02-05T03:54:52.304Z,6.65
2023-02-05T03:57:30.782Z,7.50
2023-02-05T03:59:59.264Z,10.73
2023-02-05T04:02:29.042Z,7.63
2023-02-05T04:04:57.380Z,8.02
2023-02-05T04:07:25.038Z,6.20
2023-02-05T04:09:53.426Z,8.23
2023-02-05T04:12:20.761Z,6.32
2023-02-05T04:14:48.801Z,9.68
2023-02-05T04:17:16.278Z,7.90
2023-02-05T04:19:43.561Z,10.50
2023-02-05T04:22:12.837Z,10.95
2023-02-05T04:24:43.614Z,13.07
2023-02-05T04:27:11.169Z,7.13
2023-02-05T04:29:39.418Z,10.18
2023-02-05T04:32:07.115Z,11.75
2023-02-05T04:34:35.232Z,7.15
2023-02-05T04:37:03.174Z,7.65
2023-02-05T04:39:32.293Z,9.03
2023-02-05T04:42:02.780Z,7.57
2023-02-05T04:44:30.072Z,9.80
2023-02-05T04:46:57.330Z,10.40
2023-02-05T04:49:24.859Z,8.48
2023-02-05T04:51:52.166Z,9.70
2023-02-05T04:54:19.525Z,11.30
2023-02-05T04:56:46.991Z,7.60
2023-02-05T04:59:14.354Z,11.30
2023-02-05T05:01:41.800Z,10.32
2023-02-05T05:04:09.475Z,8.52
2023-02-05T05:06:36.733Z,9.35
2023-02-05T05:09:04.047Z,13.18
2023-02-05T05:11:31.280Z,8.88
2023-02-05T05:13:58.552Z,10.82
2023-02-05T05:16:25.779Z,10.45
2023-02-05T05:18:53.131Z,9.13
2023-02-05T05:21:20.369Z,10.75
2023-02-05T05:23:47.606Z,7.72
2023-02-05T05:26:14.940Z,10.48
2023-02-05T05:28:42.175Z,11.70
2023-02-05T05:31:13.243Z,10.32
2023-02-05T05:33:40.517Z,9.43
2023-02-05T05:36:08.534Z,9.82
2023-02-05T05:38:35.838Z,8.38
2023-02-05T05:41:22.329Z,8.57
2023-02-05T05:43:51.187Z,9.82
2023-02-05T05:46:41.079Z,12.07
2023-02-05T05:49:08.391Z,9.60
2023-02-05T05:51:35.659Z,12.52
2023-02-05T05:54:03.044Z,10.73
2023-02-05T05:56:30.363Z,12.15
2023-02-05T05:58:57.628Z,7.43
2023-02-05T06:01:24.867Z,11.20
2023-02-05T06:03:52.077Z,10.60
2023-02-05T06:06:19.335Z,11.32
2023-02-05T06:08:46.663Z,12.23
2023-02-05T06:11:13.957Z,11.80
2023-02-05T06:13:41.902Z,9.35
2023-02-05T06:16:09.294Z,13.02
2023-02-05T06:18:36.557Z,10.07
2023-02-05T06:21:05.879Z,11.98
2023-02-05T06:23:34.093Z,10.68
2023-02-05T06:26:01.384Z,11.30
2023-02-05T06:28:28.646Z,8.75
2023-02-05T06:30:56.026Z,12.15
2023-02-05T06:33:23.440Z,12.68
2023-02-05T06:35:50.730Z,11.30
2023-02-05T06:38:18.136Z,9.77
2023-02-05T06:40:45.396Z,12.80
2023-02-05T06:43:12.735Z,9.55
2023-02-05T06:45:40.574Z,11.80
2023-02-05T06:48:07.901Z,10.68
2023-02-05T06:50:35.146Z,11.20
2023-02-05T06:53:02.543Z,9.55
2023-02-05T06:55:29.697Z,11.00
2023-02-05T06:57:56.950Z,11.75
2023-02-05T07:00:24.301Z,12.02
2023-02-05T07:02:51.728Z,9.98
2023-02-05T07:05:18.967Z,15.00
2023-02-05T07:07:47.229Z,10.85
2023-02-05T07:10:15.755Z,11.00
2023-02-05T07:12:43.034Z,11.07
2023-02-05T07:15:10.395Z,9.05
2023-02-05T07:17:39.418Z,9.52
2023-02-05T07:20:07.174Z,12.82
2023-02-05T07:22:34.376Z,12.85
2023-02-05T07:25:04.266Z,12.70
2023-02-05T07:27:31.893Z,12.82
2023-02-05T07:29:59.548Z,11.98
2023-02-05T07:32:26.787Z,12.05
2023-02-05T07:34:54.145Z,11.48
2023-02-05T07:37:21.674Z,9.38
2023-02-05T07:39:48.960Z,14.60
2023-02-05T07:42:16.282Z,11.50
2023-02-05T07:44:50.416Z,11.25
2023-02-05T07:47:17.968Z,14.07
2023-02-05T07:49:45.373Z,12.90
2023-02-05T07:52:12.676Z,13.00
2023-02-05T07:54:40.153Z,12.75
2023-02-05T07:57:07.594Z,16.70
2023-02-05T07:59:34.829Z,14.88
2023-02-05T08:02:02.246Z,16.90
2023-02-05T08:04:29.569Z,17.30
2023-02-05T08:06:57.168Z,20.70
2023-02-05T08:09:24.765Z,17.27
2023-02-05T08:11:52.112Z,19.45
2023-02-05T08:14:19.361Z,21.17
2023-02-05T08:16:46.616Z,16.55
2023-02-05T08:19:15.677Z,17.67
2023-02-05T08:21:43.740Z,16.30
2023-02-05T08:24:11.042Z,19.70
2023-02-05T08:26:38.400Z,19.55
2023-02-05T08:29:05.653Z,14.20
2023-02-05T08:31:33.026Z,14.40
2023-02-05T08:34:00.403Z,18.77
2023-02-05T08:36:28.243Z,25.10
2023-02-05T08:38:55.438Z,21.50
2023-02-05T08:41:22.905Z,21.83
2023-02-05T08:43:51.264Z,18.40
2023-02-05T08:46:21.849Z,23.38
2023-02-05T08:48:49.233Z,23.33
2023-02-05T08:51:17.760Z,23.42
2023-02-05T08:53:45.590Z,27.27
2023-02-05T08:56:14.084Z,27.02
2023-02-05T08:58:41.870Z,25.23
2023-02-05T09:01:14.258Z,22.92
2023-02-05T09:03:41.795Z,20.33
2023-02-05T09:06:12.586Z,23.48
2023-02-05T09:08:40.087Z,23.23
2023-02-05T09:11:07.893Z,23.63
2023-02-05T09:13:35.338Z,17.88
2023-02-05T09:16:02.826Z,23.63
2023-02-05T09:18:30.400Z,20.75
2023-02-05T09:20:57.823Z,20.20
2023-02-05T09:23:25.349Z,24.48
2023-02-05T09:25:52.694Z,20.65
2023-02-05T09:28:19.999Z,21.33
2023-02-05T09:30:47.524Z,18.33
2023-02-05T09:33:14.997Z,21.70
2023-02-05T09:35:42.349Z,18.75
2023-02-05T09:38:13.357Z,16.98
2023-02-05T09:40:59.300Z,17.60
2023-02-05T09:43:53.242Z,20.95
2023-02-05T09:46:26.219Z,18.70
2023-02-05T09:49:04.146Z,17.85
2023-02-05T09:51:41.532Z,16.20
2023-02-05T09:54:16.749Z,16.92
2023-02-05T09:56:45.007Z,16.73
2023-02-05T09:59:32.874Z,16.73
2023-02-05T10:02:03.829Z,17.50
2023-02-05T10:04:32.146Z,13.73
2023-02-05T10:07:23.734Z,14.82
2023-02-05T10:10:20.407Z,15.23
2023-02-05T10:13:06.783Z,15.48
2023-02-05T10:15:52.734Z,11.73
2023-02-05T10:18:52.671Z,10.95
2023-02-05T10:21:38.210Z,11.52
2023-02-05T10:24:28.874Z,12.80
2023-02-05T10:27:01.878Z,8.43
2023-02-05T10:29:47.528Z,13.82
2023-02-05T10:32:25.295Z,9.18
2023-02-05T10:35:24.338Z,7.93
2023-02-05T10:37:53.904Z,12.20
2023-02-05T10:40:44.048Z,10.48
2023-02-05T10:45:45.714Z,9.93
2023-02-05T10:48:50.610Z,6.78
2023-02-05T10:51:24.734Z,9.32
2023-02-05T10:53:52.192Z,9.98
2023-02-05T10:56:20.150Z,15.23
2023-02-05T10:58:54.482Z,15.50
2023-02-05T11:01:30.325Z,12.88
2023-02-05T11:04:07.870Z,10.73
2023-02-05T11:06:40.916Z,12.68
2023-02-05T11:09:27.074Z,11.68
2023-02-05T11:11:59.911Z,16.45
2023-02-05T11:14:32.164Z,15.40
2023-02-05T11:17:01.789Z,8.63
2023-02-05T11:19:29.329Z,11.05
2023-02-05T11:21:58.880Z,10.38
2023-02-05T11:24:28.587Z,9.70
2023-02-05T11:27:23.813Z,8.70
2023-02-05T11:29:51.015Z,7.90
2023-02-05T11:32:38.428Z,11.48
2023-02-05T11:35:20.868Z,14.63
2023-02-05T11:38:16.126Z,10.02
2023-02-05T11:40:51.861Z,10.75
2023-02-05T11:43:23.830Z,12.15
2023-02-05T11:45:52.143Z,9.02
2023-02-05T11:48:34.613Z,20.42
2023-02-05T11:51:03.998Z,13.02
2023-02-05T11:53:33.104Z,11.32
2023-02-05T11:56:10.123Z,15.85
2023-02-05T11:58:38.425Z,24.55
2023-02-05T12:01:29.122Z,15.10
2023-02-05T12:04:02.138Z,14.75
2023-02-05T12:06:45.691Z,9.82
2023-02-05T12:09:18.053Z,11.15
2023-02-05T12:12:03.501Z,14.48
2023-02-05T12:14:53.014Z,8.93
2023-02-05T12:17:41.817Z,9.95
2023-02-05T12:20:20.047Z,11.70
2023-02-05T12:23:06.231Z,15.00
2023-02-05T12:25:35.978Z,16.08
2023-02-05T12:28:32.482Z,11.07
2023-02-05T12:31:37.568Z,12.30
2023-02-05T12:34:14.082Z,16.55
2023-02-05T12:36:58.364Z,16.85
2023-02-05T12:39:58.264Z,22.40
2023-02-05T12:42:40.490Z,19.27
2023-02-05T12:45:30.980Z,13.23
2023-02-05T12:48:18.343Z,20.05
2023-02-05T12:50:45.500Z,15.95
2023-02-05T12:53:18.687Z,15.00
2023-02-05T12:56:25.616Z,13.50
2023-02-05T12:59:10.287Z,11.30
2023-02-05T13:01:47.232Z,9.52
2023-02-05T13:04:21.966Z,13.57
2023-02-05T13:06:55.520Z,15.50
2023-02-05T13:09:31.744Z,18.35
2023-02-05T13:12:05.074Z,15.63
2023-02-05T13:14:39.129Z,13.73
2023-02-05T13:17:12.317Z,13.98
2023-02-05T13:19:47.215Z,19.90
2023-02-05T13:22:56.674Z,15.55
2023-02-05T13:25:40.260Z,17.85
2023-02-05T13:28:41.747Z,12.68
2023-02-05T13:31:25.825Z,13.00
2023-02-05T13:33:55.900Z,14.07
2023-02-05T13:36:27.307Z,16.90
2023-02-05T13:39:11.042Z,16.60
2023-02-05T13:42:05.971Z,22.02
2023-02-05T13:44:39.045Z,13.15
2023-02-05T13:47:34.216Z,22.13
2023-02-05T13:50:39.486Z,16.02
2023-02-05T13:53:18.740Z,14.60
2023-02-05T13:56:04.030Z,18.03
2023-02-05T13:58:37.233Z,20.55
2023-02-05T14:01:17.479Z,14.13
2023-02-05T14:04:05.214Z,21.25
2023-02-05T14:06:35.431Z,14.98
2023-02-05T14:11:55.794Z,16.83
2023-02-05T14:14:35.003Z,15.85
2023-02-05T14:17:28.081Z,15.83
2023-02-05T14:19:58.383Z,17.98
2023-02-05T14:22:38.191Z,16.20
2023-02-05T14:25:42.720Z,15.25
2023-02-05T14:28:15.823Z,19.58
2023-02-05T14:30:58.627Z,17.48
2023-02-05T14:33:35.623Z,17.83
2023-02-05T14:36:22.309Z,13.55
2023-02-05T14:39:04.905Z,13.48
2023-02-05T14:41:41.915Z,28.92
2023-02-05T14:44:12.289Z,14.65
2023-02-05T14:47:04.574Z,22.75
2023-02-05T14:49:39.383Z,16.95
2023-02-05T14:52:17.798Z,17.70
2023-02-05T14:54:48.386Z,18.77
2023-02-05T14:57:19.335Z,17.92
2023-02-05T14:59:59.798Z,16.02
2023-02-05T15:02:55.285Z,20.23
2023-02-05T15:05:31.274Z,17.17
2023-02-05T15:08:10.625Z,18.95
2023-02-05T15:10:55.793Z,20.20
2023-02-05T15:13:24.584Z,21.30
2023-02-05T15:16:18.793Z,14.43
2023-02-05T15:18:53.180Z,19.58
2023-02-05T15:21:25.426Z,16.42
2023-02-05T15:24:03.150Z,19.20
2023-02-05T15:26:55.560Z,18.60
2023-02-05T15:29:27.837Z,20.98
2023-02-05T15:31:58.194Z,15.65
2023-02-05T15:34:39.423Z,20.25
2023-02-05T15:37:17.819Z,21.95
2023-02-05T15:39:48.201Z,25.67
2023-02-05T15:42:26.744Z,21.05
2023-02-05T15:44:54.364Z,21.60
2023-02-05T15:47:23.662Z,16.05
2023-02-05T15:50:00.850Z,16.90
2023-02-05T15:52:30.226Z,15.85
2023-02-05T15:55:00.738Z,17.30
2023-02-05T15:57:30.487Z,18.40
2023-02-05T16:00:00.562Z,26.95
2023-02-05T16:05:01.477Z,26.38
2023-02-05T16:07:35.440Z,14.88
2023-02-05T16:10:20.551Z,18.92
2023-02-05T16:13:01.314Z,20.95
2023-02-05T16:15:45.261Z,22.40
2023-02-05T16:18:42.029Z,21.52
2023-02-05T16:21:25.257Z,21.08
2023-02-05T16:24:11.484Z,16.73
2023-02-05T16:26:47.090Z,17.45
2023-02-05T16:29:29.671Z,15.90
2023-02-05T16:32:03.705Z,15.48
2023-02-05T16:34:31.690Z,18.45
2023-02-05T16:37:02.635Z,24.25
2023-02-05T16:39:38.642Z,18.60
2023-02-05T16:42:08.067Z,17.05
2023-02-05T16:44:37.872Z,17.75
2023-02-05T16:47:16.218Z,17.02
2023-02-05T16:49:45.444Z,24.95
2023-02-05T16:52:31.676Z,18.23
2023-02-05T16:55:00.480Z,22.20
2023-02-05T16:57:38.905Z,17.35
2023-02-05T17:00:18.467Z,20.05
2023-02-05T17:02:46.176Z,13.50
2023-02-05T17:05:28.079Z,17.13
2023-02-05T17:08:08.941Z,20.48
2023-02-05T17:10:51.097Z,25.25
2023-02-05T17:13:41.225Z,20.73
2023-02-05T17:19:02.186Z,19.83
2023-02-05T17:21:34.474Z,19.42
2023-02-05T17:24:02.936Z,22.58
2023-02-05T17:26:33.523Z,19.50
2023-02-05T17:29:04.694Z,20.45
2023-02-05T17:31:37.531Z,26.63
2023-02-05T17:34:05.349Z,23.95
2023-02-05T17:36:32.714Z,18.17
2023-02-05T17:39:00.065Z,22.15
2023-02-05T17:41:55.443Z,17.70
2023-02-05T17:44:22.908Z,25.52
2023-02-05T17:46:50.282Z,26.50
2023-02-05T17:49:17.705Z,26.77
2023-02-05T17:51:45.478Z,19.15
2023-02-05T17:54:18.117Z,20.27
2023-02-05T17:56:46.763Z,24.08
2023-02-05T17:59:15.772Z,23.33
2023-02-05T18:01:43.107Z,22.95
2023-02-05T18:04:10.424Z,27.38
2023-02-05T18:06:38.225Z,20.90
2023-02-05T18:09:05.977Z,26.25
2023-02-05T18:11:33.680Z,22.67
2023-02-05T18:14:02.066Z,23.80
2023-02-05T18:16:29.404Z,25.40
2023-02-05T18:18:56.738Z,19.25
2023-02-05T18:21:24.694Z,29.38
2023-02-05T18:23:53.426Z,20.95
2023-02-05T18:26:21.008Z,19.17
2023-02-05T18:28:48.284Z,20.70
2023-02-05T18:31:15.858Z,22.10
2023-02-05T18:33:43.658Z,24.67
2023-02-05T18:36:14.376Z,24.70
2023-02-05T18:38:44.365Z,22.00
2023-02-05T18:41:17.351Z,20.08
2023-02-05T18:43:45.029Z,24.77
2023-02-05T18:46:14.956Z,25.17
2023-02-05T18:48:42.205Z,24.35
2023-02-05T18:51:11.190Z,26.70
2023-02-05T18:53:43.154Z,26.08
2023-02-05T18:56:16.283Z,28.73
2023-02-05T18:58:44.508Z,19.65
2023-02-05T19:01:17.121Z,24.13
2023-02-05T19:03:44.834Z,27.40
2023-02-05T19:06:15.775Z,17.10
2023-02-05T19:08:44.200Z,29.40
2023-02-05T19:11:16.044Z,22.90
2023-02-05T19:13:43.327Z,25.50
2023-02-05T19:16:13.181Z,31.27
2023-02-05T19:18:41.550Z,22.65
2023-02-05T19:21:11.324Z,20.95
2023-02-05T19:23:38.728Z,22.30
2023-02-05T19:26:08.632Z,25.98
2023-02-05T19:28:36.659Z,28.15
2023-02-05T19:31:09.393Z,23.58
2023-02-05T19:33:37.334Z,33.28
2023-02-05T19:36:06.303Z,25.52
2023-02-05T19:38:38.629Z,27.85
2023-02-05T19:41:12.532Z,23.58
2023-02-05T19:43:43.271Z,26.17
2023-02-05T19:46:10.609Z,25.75
2023-02-05T19:48:37.810Z,24.92
2023-02-05T19:51:07.583Z,27.33
2023-02-05T19:53:35.711Z,22.33
2023-02-05T19:56:25.251Z,27.02
2023-02-05T19:58:54.629Z,28.70
2023-02-05T20:01:23.770Z,37.80
2023-02-05T20:03:52.775Z,33.08
2023-02-05T20:06:21.370Z,27.05
2023-02-05T20:08:48.803Z,22.70
2023-02-05T20:11:17.720Z,20.63
2023-02-05T20:13:45.533Z,26.15
2023-02-05T20:16:18.872Z,25.65
2023-02-05T20:18:46.717Z,24.30
2023-02-05T20:21:16.289Z,27.33
2023-02-05T20:23:43.550Z,26.50
2023-02-05T20:26:11.394Z,30.88
2023-02-05T20:29:00.115Z,32.25
2023-02-05T20:31:35.341Z,24.27
2023-02-05T20:34:05.035Z,24.42
2023-02-05T20:36:33.045Z,21.42
2023-02-05T20:39:01.861Z,26.88
2023-02-05T20:41:29.176Z,27.25
2023-02-05T20:43:57.655Z,27.27
2023-02-05T20:46:25.408Z,30.83
2023-02-05T20:48:52.662Z,30.58
2023-02-05T20:51:22.622Z,22.08
2023-02-05T20:53:50.372Z,27.60
2023-02-05T20:56:19.510Z,31.35
2023-02-05T20:58:47.255Z,34.47
2023-02-05T21:01:22.802Z,28.88
2023-02-05T21:03:52.459Z,28.65
2023-02-05T21:06:21.444Z,29.08
2023-02-05T21:08:49.848Z,21.42
2023-02-05T21:11:18.058Z,25.38
2023-02-05T21:13:46.730Z,24.10
2023-02-05T21:16:15.656Z,25.30
2023-02-05T21:18:47.398Z,25.27
2023-02-05T21:21:18.530Z,35.60
2023-02-05T21:23:49.032Z,28.00
2023-02-05T21:26:22.175Z,28.90
2023-02-05T21:28:53.033Z,31.13
2023-02-05T21:31:21.011Z,35.58
2023-02-05T21:33:48.537Z,26.15
2023-02-05T21:36:17.745Z,26.70
2023-02-05T21:38:45.144Z,30.02
2023-02-05T21:41:17.527Z,27.50
2023-02-05T21:43:49.601Z,26.00
2023-02-05T21:46:17.116Z,34.45
2023-02-05T21:48:48.302Z,35.50
2023-02-05T21:51:16.813Z,25.63
2023-02-05T21:53:44.573Z,28.10
2023-02-05T21:56:16.572Z,31.38
2023-02-05T21:58:43.797Z,25.70
2023-02-05T22:01:20.256Z,29.70
2023-02-05T22:03:52.640Z,34.28
2023-02-05T22:06:21.577Z,33.08
2023-02-05T22:08:51.505Z,38.30
2023-02-05T22:11:20.541Z,30.95
2023-02-05T22:13:50.115Z,31.95
2023-02-05T22:16:21.758Z,26.98
2023-02-05T22:18:49.503Z,33.28
2023-02-05T22:21:24.239Z,34.80
2023-02-05T22:23:53.449Z,36.17
2023-02-05T22:26:24.049Z,37.63
2023-02-05T22:28:51.904Z,25.13
2023-02-05T22:31:20.629Z,34.85
2023-02-05T22:33:49.500Z,26.95
2023-02-05T22:36:20.487Z,39.58
2023-02-05T22:38:48.856Z,27.27
2023-02-05T22:41:19.817Z,33.60
2023-02-05T22:43:47.221Z,34.33
2023-02-05T22:46:20.025Z,39.17
2023-02-05T22:48:48.818Z,33.75
2023-02-05T22:51:18.874Z,24.85
2023-02-05T22:56:13.499Z,30.17
2023-02-05T22:58:42.920Z,34.58
2023-02-05T23:01:17.875Z,38.97
2023-02-05T23:03:46.453Z,33.92
2023-02-05T23:06:16.494Z,31.30
2023-02-05T23:11:13.104Z,30.40
2023-02-05T23:13:41.619Z,43.58
2023-02-05T23:16:12.618Z,34.63
2023-02-05T23:18:40.994Z,36.90
2023-02-05T23:21:10.065Z,39.65
2023-02-05T23:23:37.447Z,36.50
2023-02-05T23:26:09.991Z,31.70
2023-02-05T23:28:37.322Z,35.65
2023-02-05T23:31:05.225Z,33.13
2023-02-05T23:33:33.292Z,29.90
2023-02-05T23:36:00.666Z,42.80
2023-02-05T23:38:28.458Z,41.38
2023-02-05T23:40:56.306Z,37.60
2023-02-05T23:43:24.075Z,37.30
2023-02-05T23:45:52.193Z,38.88
2023-02-05T23:48:19.760Z,38.17
2023-02-05T23:50:52.076Z,35.92
2023-02-05T23:53:22.616Z,33.33
2023-02-05T23:55:51.719Z,34.28
2023-02-05T23:58:20.185Z,42.08
